createdAt,value
2023-01-17T00:03:03.253Z,1.17
2023-01-17T00:06:24.135Z,1.17
2023-01-17T00:09:44.486Z,1.40
2023-01-17T00:12:55.553Z,1.40
2023-01-17T00:15:58.178Z,1.20
2023-01-17T00:19:19.795Z,1.37
2023-01-17T00:22:37.992Z,1.10
2023-01-17T00:26:01.221Z,1.30
2023-01-17T00:29:03.572Z,1.30
2023-01-17T00:32:05.401Z,1.20
2023-01-17T00:35:11.900Z,1.50
2023-01-17T00:38:16.554Z,1.40
2023-01-17T00:41:20.372Z,1.20
2023-01-17T00:44:46.717Z,1.40
2023-01-17T00:48:06.808Z,1.37
2023-01-17T00:51:28.141Z,1.30
2023-01-17T00:54:48.389Z,1.53
2023-01-17T00:58:09.824Z,1.30
2023-01-17T01:01:30.355Z,1.10
2023-01-17T01:04:53.621Z,1.50
2023-01-17T01:08:15.483Z,1.30
2023-01-17T01:11:38.460Z,1.40
2023-01-17T01:15:04.679Z,1.10
2023-01-17T01:18:31.121Z,1.50
2023-01-17T01:21:51.761Z,1.27
2023-01-17T01:25:13.408Z,1.37
2023-01-17T01:28:33.525Z,1.40
2023-01-17T01:31:56.523Z,1.50
2023-01-17T01:34:59.141Z,1.30
2023-01-17T01:38:03.288Z,1.40
2023-01-17T01:41:07.686Z,1.60
2023-01-17T01:44:43.635Z,1.50
2023-01-17T01:47:47.684Z,1.40
2023-01-17T01:50:53.860Z,1.23
2023-01-17T01:54:01.526Z,1.67
2023-01-17T01:57:09.844Z,1.57
2023-01-17T02:00:17.859Z,1.80
2023-01-17T02:03:24.127Z,1.60
2023-01-17T02:06:31.375Z,1.30
2023-01-17T02:09:34.045Z,1.57
2023-01-17T02:12:38.600Z,1.60
2023-01-17T02:15:50.325Z,1.60
2023-01-17T02:19:01.076Z,1.23
2023-01-17T02:22:28.605Z,1.60
2023-01-17T02:26:19.374Z,1.40
2023-01-17T02:30:04.378Z,1.70
2023-01-17T02:33:23.478Z,1.53
2023-01-17T02:36:39.493Z,1.20
2023-01-17T02:39:49.725Z,1.40
2023-01-17T02:42:59.321Z,1.80
2023-01-17T02:46:02.174Z,1.57
2023-01-17T02:49:06.220Z,1.40
2023-01-17T02:52:37.557Z,1.50
2023-01-17T02:55:52.391Z,2.17
2023-01-17T02:59:08.717Z,1.83
2023-01-17T03:02:20.812Z,1.60
2023-01-17T03:05:33.344Z,1.53
2023-01-17T03:08:36.150Z,1.60
2023-01-17T03:11:38.913Z,1.40
2023-01-17T03:14:41.626Z,1.60
2023-01-17T03:17:50.271Z,1.40
2023-01-17T03:20:54.287Z,1.70
2023-01-17T03:23:57.012Z,1.50
2023-01-17T03:26:59.717Z,1.90
2023-01-17T03:30:03.433Z,1.80
2023-01-17T03:33:06.150Z,1.60
2023-01-17T03:36:13.264Z,1.60
2023-01-17T03:39:15.917Z,1.60
2023-01-17T03:42:18.714Z,1.67
2023-01-17T03:45:21.394Z,1.40
2023-01-17T03:48:24.145Z,1.50
2023-01-17T03:51:28.197Z,1.80
2023-01-17T03:54:30.913Z,1.37
2023-01-17T03:57:33.628Z,1.23
2023-01-17T04:00:36.854Z,1.53
2023-01-17T04:03:39.566Z,1.80
2023-01-17T04:06:43.671Z,1.43
2023-01-17T04:09:46.417Z,1.60
2023-01-17T04:12:49.327Z,1.83
2023-01-17T04:15:52.524Z,1.70
2023-01-17T04:18:55.383Z,1.70
2023-01-17T04:21:59.384Z,1.80
2023-01-17T04:25:08.932Z,2.00
2023-01-17T04:28:12.155Z,1.77
2023-01-17T04:31:16.795Z,1.90
2023-01-17T04:34:19.994Z,2.37
2023-01-17T04:37:26.926Z,2.30
2023-01-17T04:40:29.696Z,1.97
2023-01-17T04:43:43.344Z,2.27
2023-01-17T04:46:46.021Z,2.40
2023-01-17T04:49:48.747Z,2.17
2023-01-17T04:52:52.726Z,2.20
2023-01-17T04:55:55.534Z,2.10
2023-01-17T04:58:58.635Z,2.70
2023-01-17T05:02:01.305Z,2.43
2023-01-17T05:05:04.002Z,2.43
2023-01-17T05:08:07.983Z,2.50
2023-01-17T05:11:10.631Z,2.20
2023-01-17T05:14:13.350Z,2.30
2023-01-17T05:17:16.397Z,2.70
2023-01-17T05:20:19.400Z,2.80
2023-01-17T05:23:23.463Z,2.77
2023-01-17T05:26:26.552Z,2.50
2023-01-17T05:29:29.420Z,2.10
2023-01-17T05:32:32.162Z,2.30
2023-01-17T05:35:34.856Z,2.30
2023-01-17T05:38:39.017Z,1.90
2023-01-17T05:41:44.457Z,2.10
2023-01-17T05:44:47.744Z,2.40
2023-01-17T05:47:52.442Z,2.43
2023-01-17T05:50:55.127Z,2.60
2023-01-17T05:53:59.244Z,2.90
2023-01-17T05:57:02.012Z,3.10
2023-01-17T06:00:05.848Z,2.93
2023-01-17T06:03:08.635Z,2.90
2023-01-17T06:06:11.349Z,2.80
2023-01-17T06:09:15.405Z,2.70
2023-01-17T06:12:18.075Z,2.77
2023-01-17T06:15:20.909Z,3.00
2023-01-17T06:18:23.615Z,3.17
2023-01-17T06:21:26.432Z,2.70
2023-01-17T06:24:30.531Z,2.83
2023-01-17T06:27:33.348Z,2.57
2023-01-17T06:30:36.687Z,1.70
2023-01-17T06:33:39.346Z,2.40
2023-01-17T06:36:44.063Z,2.00
2023-01-17T06:39:48.981Z,1.87
2023-01-17T06:42:52.047Z,2.07
2023-01-17T06:45:56.158Z,1.93
2023-01-17T06:48:58.875Z,2.10
2023-01-17T06:52:02.009Z,2.40
2023-01-17T06:55:07.311Z,4.03
2023-01-17T06:58:10.843Z,6.40
2023-01-17T07:01:14.118Z,6.83
2023-01-17T07:04:17.521Z,8.70
2023-01-17T07:07:20.200Z,12.57
2023-01-17T07:10:24.427Z,10.70
2023-01-17T07:13:27.433Z,7.40
2023-01-17T07:16:30.328Z,4.97
2023-01-17T07:19:33.043Z,3.33
2023-01-17T07:22:37.640Z,2.70
2023-01-17T07:25:41.820Z,2.67
2023-01-17T07:28:44.792Z,3.00
2023-01-17T07:31:49.763Z,6.73
2023-01-17T07:34:52.441Z,6.77
2023-01-17T07:37:55.870Z,6.97
2023-01-17T07:41:00.712Z,6.30
2023-01-17T07:44:03.387Z,5.43
2023-01-17T07:47:06.036Z,5.10
2023-01-17T07:50:10.163Z,4.73
2023-01-17T07:53:12.854Z,4.10
2023-01-17T07:56:16.897Z,4.50
2023-01-17T07:59:19.709Z,4.30
2023-01-17T08:02:24.225Z,4.13
2023-01-17T08:05:27.572Z,3.87
2023-01-17T08:08:30.554Z,3.80
2023-01-17T08:11:34.594Z,4.27
2023-01-17T08:14:37.451Z,4.40
2023-01-17T08:17:40.299Z,3.13
2023-01-17T08:20:44.265Z,2.97
2023-01-17T08:23:48.939Z,3.13
2023-01-17T08:26:54.919Z,3.57
2023-01-17T08:29:57.739Z,3.20
2023-01-17T08:33:01.498Z,3.70
2023-01-17T08:36:04.484Z,6.27
2023-01-17T08:39:07.901Z,6.77
2023-01-17T08:42:11.944Z,6.53
2023-01-17T08:45:15.194Z,6.20
2023-01-17T08:48:20.895Z,6.10
2023-01-17T08:51:24.876Z,5.80
2023-01-17T08:54:28.853Z,4.37
2023-01-17T08:57:40.476Z,3.93
2023-01-17T09:00:43.587Z,3.17
2023-01-17T09:03:46.844Z,3.63
2023-01-17T09:06:57.129Z,3.80
2023-01-17T09:09:59.894Z,3.90
2023-01-17T09:13:07.069Z,3.50
2023-01-17T09:16:10.549Z,3.70
2023-01-17T09:19:13.553Z,5.13
2023-01-17T09:22:17.978Z,4.47
2023-01-17T09:25:23.646Z,5.80
2023-01-17T09:28:28.941Z,7.00
2023-01-17T09:31:40.415Z,8.23
2023-01-17T09:34:43.177Z,6.87
2023-01-17T09:37:46.076Z,6.63
2023-01-17T09:40:49.909Z,7.43
2023-01-17T09:44:09.965Z,6.77
2023-01-17T09:47:19.371Z,5.80
2023-01-17T09:50:32.145Z,6.27
2023-01-17T09:53:37.712Z,6.10
2023-01-17T09:56:47.666Z,5.83
2023-01-17T10:00:03.757Z,5.90
2023-01-17T10:03:42.977Z,7.33
2023-01-17T10:07:05.595Z,7.23
2023-01-17T10:10:34.350Z,6.30
2023-01-17T10:13:49.406Z,5.00
2023-01-17T10:17:06.297Z,5.80
2023-01-17T10:20:20.212Z,5.57
2023-01-17T10:23:45.336Z,4.30
2023-01-17T10:26:51.524Z,7.07
2023-01-17T10:29:54.401Z,3.47
2023-01-17T10:33:02.778Z,2.57
2023-01-17T10:36:20.587Z,2.23
2023-01-17T10:39:25.053Z,2.67
2023-01-17T10:42:35.111Z,2.83
2023-01-17T10:45:43.640Z,4.00
2023-01-17T10:48:50.498Z,3.27
2023-01-17T10:52:08.791Z,2.60
2023-01-17T10:55:32.763Z,3.83
2023-01-17T10:58:35.475Z,3.10
2023-01-17T11:01:38.263Z,2.53
2023-01-17T11:04:45.023Z,3.90
2023-01-17T11:07:58.648Z,2.83
2023-01-17T11:11:05.146Z,1.80
2023-01-17T11:14:17.524Z,2.07
2023-01-17T11:17:20.991Z,4.47
2023-01-17T11:20:34.252Z,28.43
2023-01-17T11:23:37.297Z,3.10
2023-01-17T11:26:49.363Z,3.17
2023-01-17T11:30:04.633Z,1.40
2023-01-17T11:33:34.207Z,1.00
2023-01-17T11:36:38.249Z,1.33
2023-01-17T11:39:44.446Z,1.53
2023-01-17T11:43:19.624Z,1.20
2023-01-17T11:46:22.788Z,3.40
2023-01-17T11:49:30.290Z,0.87
2023-01-17T11:52:39.116Z,1.50
2023-01-17T11:55:55.078Z,1.37
2023-01-17T11:59:29.674Z,1.63
2023-01-17T12:03:07.146Z,1.30
2023-01-17T12:06:20.396Z,1.20
2023-01-17T12:09:38.546Z,1.40
2023-01-17T12:13:09.312Z,1.53
2023-01-17T12:16:28.392Z,1.17
2023-01-17T12:19:54.506Z,1.70
2023-01-17T12:23:14.271Z,1.67
2023-01-17T12:26:28.525Z,1.20
2023-01-17T12:29:44.659Z,1.10
2023-01-17T12:33:07.084Z,1.27
2023-01-17T12:36:17.642Z,1.50
2023-01-17T12:39:26.099Z,1.40
2023-01-17T12:42:36.183Z,1.43
2023-01-17T12:45:44.008Z,1.90
2023-01-17T12:48:47.691Z,1.20
2023-01-17T12:51:54.497Z,2.53
2023-01-17T12:55:02.242Z,1.70
2023-01-17T12:58:11.787Z,2.27
2023-01-17T13:01:23.095Z,1.90
2023-01-17T13:04:30.765Z,1.43
2023-01-17T13:07:44.167Z,1.97
2023-01-17T13:10:51.163Z,2.50
2023-01-17T13:13:57.952Z,2.30
2023-01-17T13:17:03.695Z,2.20
2023-01-17T13:20:18.362Z,2.40
2023-01-17T13:23:30.813Z,2.10
2023-01-17T13:26:50.741Z,1.73
2023-01-17T13:30:08.628Z,2.00
2023-01-17T13:33:36.567Z,1.90
2023-01-17T13:36:52.532Z,1.73
2023-01-17T13:40:19.346Z,1.70
2023-01-17T13:43:26.768Z,1.70
2023-01-17T13:46:32.614Z,1.70
2023-01-17T13:49:44.641Z,1.97
2023-01-17T13:52:50.911Z,2.40
2023-01-17T13:55:59.852Z,3.57
2023-01-17T13:59:27.360Z,2.47
2023-01-17T14:02:39.172Z,2.80
2023-01-17T14:05:49.239Z,4.17
2023-01-17T14:08:52.105Z,4.47
2023-01-17T14:11:59.214Z,1.67
2023-01-17T14:15:03.207Z,1.60
2023-01-17T14:18:32.555Z,4.50
2023-01-17T14:21:36.808Z,2.80
2023-01-17T14:24:59.201Z,2.20
2023-01-17T14:28:04.413Z,4.00
2023-01-17T14:31:11.021Z,2.90
2023-01-17T14:34:22.744Z,1.37
2023-01-17T14:37:42.034Z,1.40
2023-01-17T14:40:53.576Z,1.20
2023-01-17T14:43:59.601Z,1.53
2023-01-17T14:47:03.033Z,7.00
2023-01-17T14:50:22.258Z,8.70
2023-01-17T14:53:28.198Z,2.67
2023-01-17T14:56:32.204Z,3.77
2023-01-17T14:59:34.905Z,2.67
2023-01-17T15:02:42.385Z,6.53
2023-01-17T15:05:50.548Z,3.60
2023-01-17T15:08:54.437Z,9.20
2023-01-17T15:11:58.383Z,12.37
2023-01-17T15:15:02.060Z,18.07
2023-01-17T15:18:27.754Z,8.10
2023-01-17T15:21:35.779Z,15.57
2023-01-17T15:24:44.481Z,4.60
2023-01-17T15:27:47.207Z,5.90
2023-01-17T15:31:05.901Z,4.50
2023-01-17T15:34:12.732Z,6.40
2023-01-17T15:37:30.515Z,7.43
2023-01-17T15:40:33.242Z,7.07
2023-01-17T15:43:36.118Z,10.73
2023-01-17T15:46:43.386Z,11.30
2023-01-17T15:49:52.042Z,8.50
2023-01-17T15:52:57.818Z,6.73
2023-01-17T15:56:01.255Z,5.70
2023-01-17T15:59:31.415Z,5.27
2023-01-17T16:02:38.775Z,6.13
2023-01-17T16:05:44.805Z,4.13
2023-01-17T16:08:53.944Z,3.53
2023-01-17T16:11:56.815Z,8.90
2023-01-17T16:15:11.722Z,5.40
2023-01-17T16:18:18.781Z,11.57
2023-01-17T16:21:24.734Z,7.17
2023-01-17T16:24:29.093Z,8.23
2023-01-17T16:27:31.797Z,10.13
2023-01-17T16:30:34.867Z,9.37
2023-01-17T16:33:37.564Z,6.53
2023-01-17T16:36:40.359Z,8.90
2023-01-17T16:39:44.450Z,7.53
2023-01-17T16:42:47.537Z,10.67
2023-01-17T16:45:54.046Z,16.83
2023-01-17T16:48:57.333Z,10.10
2023-01-17T16:52:00.209Z,7.77
2023-01-17T16:55:04.476Z,8.70
2023-01-17T16:58:07.165Z,10.83
2023-01-17T17:01:11.170Z,12.03
2023-01-17T17:04:13.968Z,9.87
2023-01-17T17:07:16.704Z,9.50
2023-01-17T17:10:25.060Z,11.80
2023-01-17T17:13:28.418Z,13.50
2023-01-17T17:16:32.815Z,10.50
2023-01-17T17:19:35.961Z,12.27
2023-01-17T17:22:38.768Z,7.90
2023-01-17T17:25:42.801Z,10.97
2023-01-17T17:28:45.781Z,10.77
2023-01-17T17:31:48.607Z,15.87
2023-01-17T17:34:51.639Z,16.97
2023-01-17T17:37:56.108Z,22.00
2023-01-17T17:41:07.469Z,16.17
2023-01-17T17:44:10.394Z,22.63
2023-01-17T17:47:13.795Z,17.97
2023-01-17T17:50:17.132Z,17.87
2023-01-17T17:53:21.745Z,19.60
2023-01-17T17:56:25.811Z,17.57
2023-01-17T17:59:29.871Z,11.60
2023-01-17T18:02:32.652Z,15.57
2023-01-17T18:05:35.359Z,14.20
2023-01-17T18:08:38.913Z,15.67
2023-01-17T18:11:44.317Z,15.87
2023-01-17T18:14:47.903Z,10.27
2023-01-17T18:17:50.864Z,6.70
2023-01-17T18:20:53.701Z,6.40
2023-01-17T18:23:59.772Z,6.97
2023-01-17T18:27:03.908Z,7.77
2023-01-17T18:30:08.047Z,8.13
2023-01-17T18:33:10.848Z,8.90
2023-01-17T18:36:14.936Z,9.70
2023-01-17T18:39:19.908Z,10.50
2023-01-17T18:42:24.611Z,12.20
2023-01-17T18:45:27.428Z,10.93
2023-01-17T18:48:30.173Z,9.60
2023-01-17T18:51:34.878Z,8.30
2023-01-17T18:54:37.618Z,9.40
2023-01-17T18:57:41.810Z,7.97
2023-01-17T19:00:44.518Z,10.00
2023-01-17T19:03:49.262Z,12.17
2023-01-17T19:06:51.996Z,11.00
2023-01-17T19:09:54.699Z,8.87
2023-01-17T19:12:58.745Z,10.87
2023-01-17T19:16:02.960Z,11.30
2023-01-17T19:19:08.004Z,14.03
2023-01-17T19:22:10.871Z,16.73
2023-01-17T19:25:13.787Z,14.53
2023-01-17T19:28:17.873Z,14.27
2023-01-17T19:31:23.581Z,11.10
2023-01-17T19:34:26.531Z,11.33
2023-01-17T19:37:29.637Z,14.33
2023-01-17T19:40:32.360Z,12.07
2023-01-17T19:43:36.710Z,10.70
2023-01-17T19:46:39.797Z,10.23
2023-01-17T19:49:44.397Z,10.23
2023-01-17T19:52:47.128Z,12.73
2023-01-17T19:55:49.906Z,11.77
2023-01-17T19:58:54.502Z,10.37
2023-01-17T20:01:57.362Z,10.43
2023-01-17T20:05:00.247Z,9.60
2023-01-17T20:08:03.730Z,10.33
2023-01-17T20:11:07.792Z,11.47
2023-01-17T20:14:15.222Z,14.73
2023-01-17T20:17:17.906Z,16.63
2023-01-17T20:20:22.740Z,18.03
2023-01-17T20:23:32.898Z,17.00
2023-01-17T20:26:36.388Z,14.57
2023-01-17T20:29:40.733Z,14.00
2023-01-17T20:32:43.390Z,15.90
2023-01-17T20:35:46.180Z,15.03
2023-01-17T20:38:49.338Z,20.43
2023-01-17T20:41:52.100Z,24.00
2023-01-17T20:44:56.185Z,18.67
2023-01-17T20:47:59.173Z,24.40
2023-01-17T20:51:06.377Z,34.67
2023-01-17T20:54:13.034Z,23.63
2023-01-17T20:57:15.773Z,17.83
2023-01-17T21:00:23.026Z,17.13
2023-01-17T21:03:28.753Z,14.40
2023-01-17T21:06:31.754Z,12.73
2023-01-17T21:09:34.499Z,10.73
2023-01-17T21:12:40.195Z,11.90
2023-01-17T21:15:46.592Z,10.27
2023-01-17T21:18:50.442Z,8.83
2023-01-17T21:21:53.146Z,14.63
2023-01-17T21:25:03.362Z,16.20
2023-01-17T21:28:09.636Z,14.00
2023-01-17T21:31:38.603Z,14.87
2023-01-17T21:35:03.994Z,12.80
2023-01-17T21:38:06.878Z,12.30
2023-01-17T21:41:09.798Z,12.73
2023-01-17T21:44:27.948Z,12.50
2023-01-17T21:47:32.797Z,12.13
2023-01-17T21:50:39.048Z,12.13
2023-01-17T21:53:44.686Z,11.37
2023-01-17T21:57:07.988Z,10.97
2023-01-17T22:00:14.681Z,11.40
2023-01-17T22:03:27.048Z,11.20
2023-01-17T22:06:35.282Z,13.00
2023-01-17T22:09:37.957Z,10.67
2023-01-17T22:12:40.669Z,10.50
2023-01-17T22:15:43.870Z,10.97
2023-01-17T22:18:48.465Z,12.70
2023-01-17T22:21:51.159Z,12.73
2023-01-17T22:24:53.836Z,11.83
2023-01-17T22:27:57.059Z,11.63
2023-01-17T22:31:06.511Z,12.17
2023-01-17T22:34:19.839Z,23.03
2023-01-17T22:37:24.779Z,14.07
2023-01-17T22:40:27.897Z,12.03
2023-01-17T22:43:30.521Z,13.20
2023-01-17T22:46:35.584Z,14.27
2023-01-17T22:49:39.722Z,11.73
2023-01-17T22:52:44.603Z,9.90
2023-01-17T22:55:47.235Z,10.10
2023-01-17T22:58:53.440Z,12.53
2023-01-17T23:01:59.583Z,11.87
2023-01-17T23:05:04.017Z,14.03
2023-01-17T23:08:08.823Z,10.90
2023-01-17T23:11:40.817Z,10.80
2023-01-17T23:15:02.029Z,10.73
2023-01-17T23:18:22.186Z,11.73
2023-01-17T23:21:58.372Z,9.67
2023-01-17T23:25:02.506Z,9.77
2023-01-17T23:28:23.151Z,9.97
2023-01-17T23:31:25.851Z,10.47
2023-01-17T23:34:31.530Z,12.80
2023-01-17T23:37:55.483Z,13.00
2023-01-17T23:41:20.662Z,11.90
2023-01-17T23:44:27.190Z,9.57
2023-01-17T23:47:29.846Z,9.07
2023-01-17T23:50:32.616Z,9.10
2023-01-17T23:53:37.803Z,8.30
2023-01-17T23:56:42.978Z,9.10
2023-01-17T23:59:48.757Z,9.33
